Time;durP1;ratioP1;P1;durP2;ratioP2;P2;SDS_P1;SDS_P2;PMS_P1;PMS_P2;Temp;Humidity;BMP_temperature;BMP_pressure;BME280_temperature;BME280_humidity;BME280_pressure;Samples;Min_cycle;Max_cycle;Signal;HPM_P1;HPM_P2
2023/09/19 00:02:08;;;;;;;;;;;;;;;;;;5049119;28;19913;-59
2023/09/19 00:04:34;;;;;;;;;;;;;;;;;;5050300;28;19908;-59
2023/09/19 00:06:59;;;;;;;;;;;;;;;;;;5049153;28;19912;-59
2023/09/19 00:09:28;;;;;;;;;;;;;;;;;;5050334;28;19934;-59
2023/09/19 00:11:53;;;;;;;;;;;;;;;;;;5048810;28;19955;-59
2023/09/19 00:14:18;;;;;;;;;;;;;;;;;;5050738;28;20390;-59
2023/09/19 00:16:43;;;;;;;;;;;;;;;;;;5048301;28;19909;-59
2023/09/19 00:19:08;;;;;;;;;;;;;;;;;;5050456;28;19939;-59
2023/09/19 00:21:34;;;;;;;;;;;;;;;;;;5048966;28;19936;-59
2023/09/19 00:23:59;;;;;;;;;;;;;;;;;;5050110;28;19955;-59
2023/09/19 00:26:24;;;;;;;;;;;;;;;;;;5048969;28;19913;-59
2023/09/19 00:28:50;;;;;;;;;;;;;;;;;;5050093;28;20150;-59
2023/09/19 00:31:15;;;;;;;;;;;;;;;;;;5052041;28;20014;-59
2023/09/19 00:33:40;;;;;;;;;;;;;;;;;;5053986;28;19911;-59
2023/09/19 00:36:05;;;;;;;;;;;;;;;;;;5052379;28;19940;-59
2023/09/19 00:38:31;;;;;;;;;;;;;;;;;;5053290;28;19908;-60
2023/09/19 00:40:56;;;;;;;;;;;;;;;;;;5052817;28;19912;-60
2023/09/19 00:43:23;;;;;;;;;;;;;;;;;;5054040;28;19919;-60
2023/09/19 00:45:49;;;;;;;;;;;;;;;;;;5051926;28;19913;-59
2023/09/19 00:48:14;;;;;;;;;;;;;;;;;;5053744;28;19909;-59
2023/09/19 00:50:41;;;;;;;;;;;;;;;;;;5052154;28;20046;-59
2023/09/19 00:53:08;;;;;;;;;;;;;;;;;;5053569;28;19905;-59
2023/09/19 00:55:33;;;;;;;;;;;;;;;;;;5051993;28;19912;-59
2023/09/19 00:57:58;;;;;;;;;;;;;;;;;;5053435;28;19916;-58
2023/09/19 01:00:23;;;;;;;;;;;;;;;;;;5051694;28;20016;-59
2023/09/19 01:02:49;;;;;;;;;;;;;;;;;;5053317;28;19959;-59
2023/09/19 01:05:14;;;;;;;;;;;;;;;;;;5052221;28;19904;-59
2023/09/19 01:07:42;;;;;;;;;;;;;;;;;;5054090;28;19979;-59
2023/09/19 01:10:10;;;;;;;;;;;;;;;;;;5069956;28;19908;-59
2023/09/19 01:12:35;;;;;;;;;;;;;;;;;;5073367;28;19901;-59
2023/09/19 01:15:03;;;;;;;;;;;;;;;;;;5071392;28;19905;-56
2023/09/19 01:17:29;;;;;;;;;;;;;;;;;;5071984;28;20050;-59
2023/09/19 01:19:54;;;;;;;;;;;;;;;;;;5072581;28;19977;-59
2023/09/19 01:22:19;;;;;;;;;;;;;;;;;;5071381;28;20397;-59
2023/09/19 01:24:44;;;;;;;;;;;;;;;;;;5072645;28;19915;-59
2023/09/19 01:27:09;;;;;;;;;;;;;;;;;;5071565;28;19916;-60
2023/09/19 01:29:34;;;;;;;;;;;;;;;;;;5056228;28;20410;-59
2023/09/19 01:32:01;;;;;;;;;;;;;;;;;;5051405;28;19908;-59
2023/09/19 01:34:26;;;;;;;;;;;;;;;;;;5053131;28;19980;-59
2023/09/19 01:36:51;;;;;;;;;;;;;;;;;;5050501;28;20051;-59
2023/09/19 01:39:18;;;;;;;;;;;;;;;;;;5052428;28;20393;-59
2023/09/19 01:41:44;;;;;;;;;;;;;;;;;;5049950;28;19908;-60
2023/09/19 01:44:09;;;;;;;;;;;;;;;;;;5052641;28;19908;-59
2023/09/19 01:46:37;;;;;;;;;;;;;;;;;;5050875;28;19913;-60
2023/09/19 01:49:03;;;;;;;;;;;;;;;;;;5052504;28;20326;-60
2023/09/19 01:51:28;;;;;;;;;;;;;;;;;;5050809;28;20512;-60
2023/09/19 01:53:55;;;;;;;;;;;;;;;;;;5052204;28;20387;-60
2023/09/19 01:56:20;;;;;;;;;;;;;;;;;;5051153;28;19969;-60
2023/09/19 01:58:45;;;;;;;;;;;;;;;;;;5051787;28;19912;-60
2023/09/19 02:01:10;;;;;;;;;;;;;;;;;;5050859;28;19908;-60
2023/09/19 02:03:35;;;;;;;;;;;;;;;;;;5052235;28;19908;-60
2023/09/19 02:06:01;;;;;;;;;;;;;;;;;;5050671;28;19909;-60
2023/09/19 02:08:26;;;;;;;;;;;;;;;;;;5053081;28;19916;-60
2023/09/19 02:10:52;;;;;;;;;;;;;;;;;;5050669;28;19912;-60
2023/09/19 02:13:17;;;;;;;;;;;;;;;;;;5051808;28;19948;-60
2023/09/19 02:15:44;;;;;;;;;;;;;;;;;;5049915;28;20054;-60
2023/09/19 02:18:09;;;;;;;;;;;;;;;;;;5052223;28;19951;-60
2023/09/19 02:20:34;;;;;;;;;;;;;;;;;;5050074;28;19944;-60
2023/09/19 02:22:59;;;;;;;;;;;;;;;;;;5051754;28;19908;-60
2023/09/19 02:25:26;;;;;;;;;;;;;;;;;;5050746;28;19993;-60
2023/09/19 02:27:53;;;;;;;;;;;;;;;;;;5051503;28;19943;-59
2023/09/19 02:30:20;;;;;;;;;;;;;;;;;;5050528;28;20227;-59
2023/09/19 02:32:46;;;;;;;;;;;;;;;;;;5051462;28;19947;-59
2023/09/19 02:35:11;;;;;;;;;;;;;;;;;;5050050;28;19948;-58
2023/09/19 02:37:36;;;;;;;;;;;;;;;;;;5052516;28;19901;-59
2023/09/19 02:40:01;;;;;;;;;;;;;;;;;;5070032;28;20433;-57
2023/09/19 02:42:26;;;;;;;;;;;;;;;;;;5071531;28;19938;-60
2023/09/19 02:44:51;;;;;;;;;;;;;;;;;;5070556;28;19955;-59
2023/09/19 02:47:16;;;;;;;;;;;;;;;;;;5070051;28;19909;-60
2023/09/19 02:49:42;;;;;;;;;;;;;;;;;;5070736;28;19959;-60
2023/09/19 02:52:07;;;;;;;;;;;;;;;;;;5069186;28;19919;-60
2023/09/19 02:54:32;;;;;;;;;;;;;;;;;;5071185;28;19904;-60
2023/09/19 02:56:58;;;;;;;;;;;;;;;;;;5069818;28;19909;-60
2023/09/19 02:59:24;;;;;;;;;;;;;;;;;;5070393;28;19962;-60
2023/09/19 03:01:50;;;;;;;;;;;;;;;;;;5069149;28;19913;-60
2023/09/19 03:04:19;;;;;;;;;;;;;;;;;;5071433;28;20460;-60
2023/09/19 03:06:44;;;;;;;;;;;;;;;;;;5068989;28;19915;-60
2023/09/19 03:09:11;;;;;;;;;;;;;;;;;;5057801;28;19912;-60
2023/09/19 03:11:36;;;;;;;;;;;;;;;;;;5049405;28;19913;-60
2023/09/19 03:14:01;;;;;;;;;;;;;;;;;;5050686;28;19905;-60
2023/09/19 03:16:26;;;;;;;;;;;;;;;;;;5048316;28;19913;-60
2023/09/19 03:18:51;;;;;;;;;;;;;;;;;;5050890;28;19919;-60
2023/09/19 03:21:17;;;;;;;;;;;;;;;;;;5049325;28;19967;-61
2023/09/19 03:23:43;;;;;;;;;;;;;;;;;;5050943;28;20419;-59
2023/09/19 03:26:08;;;;;;;;;;;;;;;;;;5049678;28;19908;-60
2023/09/19 03:28:33;;;;;;;;;;;;;;;;;;5057513;28;19915;-60
2023/09/19 03:30:59;;;;;;;;;;;;;;;;;;5069155;28;19916;-60
2023/09/19 03:33:24;;;;;;;;;;;;;;;;;;5071168;28;19908;-59
2023/09/19 03:35:49;;;;;;;;;;;;;;;;;;5067373;28;19931;-60
2023/09/19 03:38:14;;;;;;;;;;;;;;;;;;5065393;28;19916;-60
2023/09/19 03:40:40;;;;;;;;;;;;;;;;;;5048930;28;20438;-60
2023/09/19 03:43:05;;;;;;;;;;;;;;;;;;5050492;28;19928;-60
2023/09/19 03:45:30;;;;;;;;;;;;;;;;;;5049477;28;19909;-60
2023/09/19 03:47:55;;;;;;;;;;;;;;;;;;5052158;28;20371;-60
2023/09/19 03:50:20;;;;;;;;;;;;;;;;;;5068668;28;19908;-60
2023/09/19 03:52:45;;;;;;;;;;;;;;;;;;5070470;28;19904;-62
2023/09/19 03:55:10;;;;;;;;;;;;;;;;;;5069189;28;19987;-60
2023/09/19 03:57:36;;;;;;;;;;;;;;;;;;5070260;28;19901;-60
2023/09/19 04:00:01;;;;;;;;;;;;;;;;;;5069139;28;19912;-59
2023/09/19 04:02:26;;;;;;;;;;;;;;;;;;5063624;28;19974;-60
2023/09/19 04:04:51;;;;;;;;;;;;;;;;;;5051504;28;19913;-60
2023/09/19 04:07:16;;;;;;;;;;;;;;;;;;5053166;28;20394;-61
2023/09/19 04:09:41;;;;;;;;;;;;;;;;;;5063382;28;20485;-61
2023/09/19 04:12:06;;;;;;;;;;;;;;;;;;5064036;28;19912;-62
2023/09/19 04:14:31;;;;;;;;;;;;;;;;;;5068251;28;19912;-62
2023/09/19 04:16:56;;;;;;;;;;;;;;;;;;5058845;28;19913;-62
2023/09/19 04:19:22;;;;;;;;;;;;;;;;;;5061233;28;19916;-62
2023/09/19 04:21:47;;;;;;;;;;;;;;;;;;5061325;28;19909;-62
2023/09/19 04:24:13;;;;;;;;;;;;;;;;;;5066391;28;19912;-62
2023/09/19 04:26:38;;;;;;;;;;;;;;;;;;5071808;28;19908;-61
2023/09/19 04:29:04;;;;;;;;;;;;;;;;;;5073859;28;19908;-58
2023/09/19 04:31:29;;;;;;;;;;;;;;;;;;5057315;28;19913;-58
2023/09/19 04:33:54;;;;;;;;;;;;;;;;;;5057982;28;19939;-59
2023/09/19 04:36:20;;;;;;;;;;;;;;;;;;5068675;28;20015;-59
2023/09/19 04:38:46;;;;;;;;;;;;;;;;;;5073514;28;19970;-58
2023/09/19 04:41:11;;;;;;;;;;;;;;;;;;5072122;28;19987;-59
2023/09/19 04:43:36;;;;;;;;;;;;;;;;;;5073303;28;20091;-59
2023/09/19 04:46:01;;;;;;;;;;;;;;;;;;5072339;28;19908;-59
2023/09/19 04:48:26;;;;;;;;;;;;;;;;;;5073457;28;19995;-59
2023/09/19 04:50:51;;;;;;;;;;;;;;;;;;5071658;28;19912;-59
2023/09/19 04:53:17;;;;;;;;;;;;;;;;;;5073827;28;19920;-59
2023/09/19 04:55:42;;;;;;;;;;;;;;;;;;5071973;28;19908;-59
2023/09/19 04:58:07;;;;;;;;;;;;;;;;;;5073015;28;19949;-58
2023/09/19 05:00:35;;;;;;;;;;;;;;;;;;5071782;28;19908;-58
2023/09/19 05:03:00;;;;;;;;;;;;;;;;;;5063525;28;20372;-58
2023/09/19 05:05:25;;;;;;;;;;;;;;;;;;5051634;28;20263;-59
2023/09/19 05:07:51;;;;;;;;;;;;;;;;;;5059645;28;20017;-58
2023/09/19 05:10:18;;;;;;;;;;;;;;;;;;5059828;28;19908;-58
2023/09/19 05:12:45;;;;;;;;;;;;;;;;;;5060491;28;19932;-58
2023/09/19 05:15:11;;;;;;;;;;;;;;;;;;5059913;28;19939;-58
2023/09/19 05:17:36;;;;;;;;;;;;;;;;;;5063420;28;19905;-58
2023/09/19 05:20:14;;;;;;;;;;;;;;;;;;5064061;28;19912;-58
2023/09/19 05:22:40;;;;;;;;;;;;;;;;;;5059687;28;19935;-58
2023/09/19 05:25:05;;;;;;;;;;;;;;;;;;5058258;28;20347;-57
2023/09/19 05:27:31;;;;;;;;;;;;;;;;;;5059815;28;19944;-58
2023/09/19 05:29:56;;;;;;;;;;;;;;;;;;5059048;28;20303;-58
2023/09/19 05:32:23;;;;;;;;;;;;;;;;;;5063707;28;19912;-59
2023/09/19 05:34:48;;;;;;;;;;;;;;;;;;5070068;28;20375;-59
2023/09/19 05:37:16;;;;;;;;;;;;;;;;;;5070179;28;20536;-57
2023/09/19 05:39:41;;;;;;;;;;;;;;;;;;5071744;28;20308;-58
2023/09/19 05:42:07;;;;;;;;;;;;;;;;;;5069242;28;20461;-59
2023/09/19 05:44:33;;;;;;;;;;;;;;;;;;5071303;28;19908;-59
2023/09/19 05:46:58;;;;;;;;;;;;;;;;;;5070419;28;20268;-59
2023/09/19 05:49:24;;;;;;;;;;;;;;;;;;5071791;28;19956;-59
2023/09/19 05:51:50;;;;;;;;;;;;;;;;;;5070855;28;19908;-59
2023/09/19 05:54:15;;;;;;;;;;;;;;;;;;5072591;28;19905;-58
2023/09/19 05:56:41;;;;;;;;;;;;;;;;;;5070187;28;19912;-58
2023/09/19 05:59:06;;;;;;;;;;;;;;;;;;5072213;28;20344;-58
2023/09/19 06:01:34;;;;;;;;;;;;;;;;;;5070577;28;20358;-59
2023/09/19 06:04:00;;;;;;;;;;;;;;;;;;5071804;28;19908;-58
2023/09/19 06:06:25;;;;;;;;;;;;;;;;;;5069442;28;19912;-58
2023/09/19 06:08:50;;;;;;;;;;;;;;;;;;5068704;28;19909;-60
2023/09/19 06:11:15;;;;;;;;;;;;;;;;;;5060148;28;20323;-58
2023/09/19 06:13:40;;;;;;;;;;;;;;;;;;5051642;28;19912;-59
2023/09/19 06:16:05;;;;;;;;;;;;;;;;;;5049685;28;19908;-59
2023/09/19 06:18:33;;;;;;;;;;;;;;;;;;5065463;28;19915;-58
2023/09/19 06:20:59;;;;;;;;;;;;;;;;;;5070392;28;19908;-59
2023/09/19 06:23:26;;;;;;;;;;;;;;;;;;5071653;28;20414;-59
2023/09/19 06:25:51;;;;;;;;;;;;;;;;;;5069560;28;19991;-59
2023/09/19 06:28:23;;;;;;;;;;;;;;;;;;5071094;28;20008;-59
2023/09/19 06:30:48;;;;;;;;;;;;;;;;;;5070101;28;19908;-59
2023/09/19 06:33:14;;;;;;;;;;;;;;;;;;5071100;28;19937;-59
2023/09/19 06:35:39;;;;;;;;;;;;;;;;;;5070019;28;20338;-59
2023/09/19 06:38:04;;;;;;;;;;;;;;;;;;5071565;28;19965;-59
2023/09/19 06:40:30;;;;;;;;;;;;;;;;;;5069412;28;19931;-59
2023/09/19 06:42:56;;;;;;;;;;;;;;;;;;5069902;28;19954;-59
2023/09/19 06:45:21;;;;;;;;;;;;;;;;;;5068303;28;19912;-59
2023/09/19 06:47:50;;;;;;;;;;;;;;;;;;5068735;28;20295;-58
2023/09/19 06:50:19;;;;;;;;;;;;;;;;;;5068079;28;19912;-60
2023/09/19 06:52:44;;;;;;;;;;;;;;;;;;5069374;28;19923;-58
2023/09/19 06:55:13;;;;;;;;;;;;;;;;;;5068132;28;19904;-58
2023/09/19 06:57:40;;;;;;;;;;;;;;;;;;5070634;28;19991;-58
2023/09/19 07:00:09;;;;;;;;;;;;;;;;;;5069730;28;20050;-61
2023/09/19 07:02:34;;;;;;;;;;;;;;;;;;5070844;28;19990;-59
2023/09/19 07:04:59;;;;;;;;;;;;;;;;;;5071182;28;19991;-59
2023/09/19 07:07:24;;;;;;;;;;;;;;;;;;5069750;28;19908;-60
2023/09/19 07:09:51;;;;;;;;;;;;;;;;;;5070478;28;19908;-59
2023/09/19 07:12:17;;;;;;;;;;;;;;;;;;5069658;28;19908;-59
2023/09/19 07:14:43;;;;;;;;;;;;;;;;;;5070805;28;19970;-58
2023/09/19 07:17:08;;;;;;;;;;;;;;;;;;5069211;28;19909;-59
2023/09/19 07:19:33;;;;;;;;;;;;;;;;;;5071144;28;20339;-60
2023/09/19 07:22:02;;;;;;;;;;;;;;;;;;5069533;28;19912;-59
2023/09/19 07:24:28;;;;;;;;;;;;;;;;;;5070238;28;19912;-58
2023/09/19 07:26:53;;;;;;;;;;;;;;;;;;5065909;28;19915;-57
2023/09/19 07:29:18;;;;;;;;;;;;;;;;;;5070595;28;19966;-57
2023/09/19 07:31:44;;;;;;;;;;;;;;;;;;5067405;28;19927;-57
2023/09/19 07:34:10;;;;;;;;;;;;;;;;;;5070469;28;20337;-58
2023/09/19 07:36:37;;;;;;;;;;;;;;;;;;5068901;28;19915;-58
2023/09/19 07:39:06;;;;;;;;;;;;;;;;;;5070377;28;20294;-57
2023/09/19 07:41:32;;;;;;;;;;;;;;;;;;5073066;28;20407;-57
2023/09/19 07:43:57;;;;;;;;;;;;;;;;;;5075040;28;19916;-58
2023/09/19 07:46:24;;;;;;;;;;;;;;;;;;5072916;28;19912;-58
2023/09/19 07:48:49;;;;;;;;;;;;;;;;;;5074755;28;19904;-58
2023/09/19 07:51:15;;;;;;;;;;;;;;;;;;5073306;28;19915;-57
2023/09/19 07:53:41;;;;;;;;;;;;;;;;;;5072827;28;19904;-58
2023/09/19 07:56:07;;;;;;;;;;;;;;;;;;5073123;28;20316;-58
2023/09/19 07:58:33;;;;;;;;;;;;;;;;;;5072888;28;20511;-58
2023/09/19 08:00:58;;;;;;;;;;;;;;;;;;5072777;28;20382;-58
2023/09/19 08:03:23;;;;;;;;;;;;;;;;;;5074349;28;20355;-58
2023/09/19 08:05:48;;;;;;;;;;;;;;;;;;5072916;28;19950;-58
2023/09/19 08:08:14;;;;;;;;;;;;;;;;;;5074261;28;19999;-58
2023/09/19 08:10:42;;;;;;;;;;;;;;;;;;5072992;28;20019;-58
2023/09/19 08:13:11;;;;;;;;;;;;;;;;;;5074698;28;19905;-57
2023/09/19 08:15:36;;;;;;;;;;;;;;;;;;5072512;28;19908;-58
2023/09/19 08:18:01;;;;;;;;;;;;;;;;;;5074185;28;19969;-58
2023/09/19 08:20:26;;;;;;;;;;;;;;;;;;5072988;28;19916;-58
2023/09/19 08:22:54;;;;;;;;;;;;;;;;;;5074133;28;19909;-58
2023/09/19 08:25:19;;;;;;;;;;;;;;;;;;5072632;28;19908;-58
2023/09/19 08:27:49;;;;;;;;;;;;;;;;;;5074058;28;20416;-57
2023/09/19 08:30:15;;;;;;;;;;;;;;;;;;5072814;28;19915;-58
2023/09/19 08:32:42;;;;;;;;;;;;;;;;;;5073265;28;19905;-58
2023/09/19 08:35:09;;;;;;;;;;;;;;;;;;5072672;28;19905;-57
2023/09/19 08:37:34;;;;;;;;;;;;;;;;;;5073416;28;20485;-58
2023/09/19 08:39:59;;;;;;;;;;;;;;;;;;5073328;28;20402;-58
2023/09/19 08:42:25;;;;;;;;;;;;;;;;;;5072392;28;19913;-57
2023/09/19 08:44:50;;;;;;;;;;;;;;;;;;5073613;28;19909;-58
2023/09/19 08:47:15;;;;;;;;;;;;;;;;;;5070549;28;19931;-58
2023/09/19 08:49:40;;;;;;;;;;;;;;;;;;5070723;28;19908;-58
2023/09/19 08:52:05;;;;;;;;;;;;;;;;;;5071359;28;19959;-58
2023/09/19 08:54:30;;;;;;;;;;;;;;;;;;5073100;28;19904;-58
2023/09/19 08:56:56;;;;;;;;;;;;;;;;;;5071764;28;19912;-59
2023/09/19 08:59:24;;;;;;;;;;;;;;;;;;5073391;28;19908;-58
2023/09/19 09:01:51;;;;;;;;;;;;;;;;;;5071356;28;19912;-58
2023/09/19 09:04:16;;;;;;;;;;;;;;;;;;5073228;28;19908;-58
2023/09/19 09:06:41;;;;;;;;;;;;;;;;;;5069965;28;19908;-60
2023/09/19 09:09:06;;;;;;;;;;;;;;;;;;5052456;28;19911;-58
2023/09/19 09:11:31;;;;;;;;;;;;;;;;;;5051641;28;19931;-58
2023/09/19 09:13:57;;;;;;;;;;;;;;;;;;5053152;28;20355;-58
2023/09/19 09:16:25;;;;;;;;;;;;;;;;;;5050595;28;19959;-58
2023/09/19 09:18:52;;;;;;;;;;;;;;;;;;5053067;28;20673;-58
2023/09/19 09:21:17;;;;;;;;;;;;;;;;;;5050277;28;19917;-57
2023/09/19 09:23:42;;;;;;;;;;;;;;;;;;5050894;28;19913;-58
2023/09/19 09:26:09;;;;;;;;;;;;;;;;;;5060051;28;20294;-57
2023/09/19 09:28:35;;;;;;;;;;;;;;;;;;5072768;28;19950;-58
2023/09/19 09:31:07;;;;;;;;;;;;;;;;;;5070443;28;19958;-58
2023/09/19 09:33:33;;;;;;;;;;;;;;;;;;5071511;28;20390;-58
2023/09/19 09:35:58;;;;;;;;;;;;;;;;;;5070873;28;20299;-58
2023/09/19 09:38:27;;;;;;;;;;;;;;;;;;5072362;28;19905;-58
2023/09/19 09:41:01;;;;;;;;;;;;;;;;;;5070677;28;19925;-58
2023/09/19 09:43:27;;;;;;;;;;;;;;;;;;5072791;28;19952;-58
2023/09/19 09:45:53;;;;;;;;;;;;;;;;;;5070699;28;20002;-58
2023/09/19 09:48:28;;;;;;;;;;;;;;;;;;5072689;28;19916;-58
2023/09/19 09:50:56;;;;;;;;;;;;;;;;;;5070748;28;20330;-58
2023/09/19 09:53:25;;;;;;;;;;;;;;;;;;5072343;28;19913;-58
2023/09/19 09:55:50;;;;;;;;;;;;;;;;;;5070856;28;19912;-58
2023/09/19 09:58:16;;;;;;;;;;;;;;;;;;5072350;28;19958;-58
2023/09/19 10:00:42;;;;;;;;;;;;;;;;;;5070128;28;19913;-58
2023/09/19 10:03:07;;;;;;;;;;;;;;;;;;5071467;28;20283;-58
2023/09/19 10:05:40;;;;;;;;;;;;;;;;;;5070242;28;20409;-58
2023/09/19 10:08:09;;;;;;;;;;;;;;;;;;5062668;28;20482;-58
2023/09/19 10:13:12;;;;;;;;;;;;;;;;;;5070779;28;19908;-58
2023/09/19 10:15:37;;;;;;;;;;;;;;;;;;5068274;28;19908;-58
2023/09/19 10:18:02;;;;;;;;;;;;;;;;;;5071614;28;19911;-58
2023/09/19 10:22:58;;;;;;;;;;;;;;;;;;5070207;28;19904;-58
2023/09/19 10:25:23;;;;;;;;;;;;;;;;;;5069806;28;19912;-58
2023/09/19 10:27:50;;;;;;;;;;;;;;;;;;5068928;28;19911;-63
2023/09/19 10:30:15;;;;;;;;;;;;;;;;;;5068664;28;20337;-58
2023/09/19 10:32:41;;;;;;;;;;;;;;;;;;5070577;28;19954;-59
2023/09/19 10:35:06;;;;;;;;;;;;;;;;;;5069121;28;19908;-58
2023/09/19 10:37:32;;;;;;;;;;;;;;;;;;5069976;28;19908;-58
2023/09/19 10:39:57;;;;;;;;;;;;;;;;;;5069695;28;20454;-58
2023/09/19 10:42:22;;;;;;;;;;;;;;;;;;5069548;28;19958;-58
2023/09/19 10:44:49;;;;;;;;;;;;;;;;;;5070379;28;20423;-58
2023/09/19 10:47:14;;;;;;;;;;;;;;;;;;5069501;28;19915;-58
2023/09/19 10:49:41;;;;;;;;;;;;;;;;;;5070726;28;19904;-58
2023/09/19 10:52:10;;;;;;;;;;;;;;;;;;5069154;28;19908;-58
2023/09/19 10:54:39;;;;;;;;;;;;;;;;;;5070948;28;20276;-58
2023/09/19 10:57:05;;;;;;;;;;;;;;;;;;5069413;28;19908;-58
2023/09/19 10:59:34;;;;;;;;;;;;;;;;;;5070583;28;19904;-58
2023/09/19 11:02:01;;;;;;;;;;;;;;;;;;5069354;28;19916;-58
2023/09/19 11:04:26;;;;;;;;;;;;;;;;;;5070882;28;19915;-68
2023/09/19 11:06:51;;;;;;;;;;;;;;;;;;5068549;28;19912;-58
2023/09/19 11:09:21;;;;;;;;;;;;;;;;;;5071118;28;19904;-58
2023/09/19 11:11:50;;;;;;;;;;;;;;;;;;5069025;28;20431;-58
2023/09/19 11:14:15;;;;;;;;;;;;;;;;;;5070288;28;19905;-59
2023/09/19 11:16:40;;;;;;;;;;;;;;;;;;5067316;28;19915;-58
2023/09/19 11:19:07;;;;;;;;;;;;;;;;;;5070896;28;19995;-58
2023/09/19 11:21:33;;;;;;;;;;;;;;;;;;5068721;28;19934;-58
2023/09/19 11:23:58;;;;;;;;;;;;;;;;;;5070549;28;19908;-58
2023/09/19 11:26:23;;;;;;;;;;;;;;;;;;5069136;28;19909;-58
2023/09/19 11:28:48;;;;;;;;;;;;;;;;;;5070314;28;19904;-59
2023/09/19 11:31:13;;;;;;;;;;;;;;;;;;5068816;28;19939;-58
2023/09/19 11:33:43;;;;;;;;;;;;;;;;;;5070174;28;19908;-58
2023/09/19 11:36:15;;;;;;;;;;;;;;;;;;5068698;28;19908;-58
2023/09/19 11:38:40;;;;;;;;;;;;;;;;;;5067715;28;19915;-59
2023/09/19 11:41:05;;;;;;;;;;;;;;;;;;5060381;28;19912;-58
2023/09/19 11:43:30;;;;;;;;;;;;;;;;;;5050087;28;19947;-58
2023/09/19 11:45:57;;;;;;;;;;;;;;;;;;5064195;28;20364;-57
2023/09/19 11:48:25;;;;;;;;;;;;;;;;;;5050357;28;19999;-58
2023/09/19 11:50:50;;;;;;;;;;;;;;;;;;5053346;28;19915;-58
2023/09/19 11:53:16;;;;;;;;;;;;;;;;;;5070578;28;20287;-59
2023/09/19 11:55:43;;;;;;;;;;;;;;;;;;5068681;28;19908;-58
2023/09/19 11:58:08;;;;;;;;;;;;;;;;;;5069994;28;19904;-58
2023/09/19 12:00:33;;;;;;;;;;;;;;;;;;5068686;28;19909;-58
2023/09/19 12:03:00;;;;;;;;;;;;;;;;;;5070234;28;19904;-58
2023/09/19 12:05:25;;;;;;;;;;;;;;;;;;5068419;28;19920;-58
2023/09/19 12:07:52;;;;;;;;;;;;;;;;;;5070274;28;19908;-59
2023/09/19 12:10:21;;;;;;;;;;;;;;;;;;5069037;28;20247;-58
2023/09/19 12:12:46;;;;;;;;;;;;;;;;;;5069652;28;19901;-58
2023/09/19 12:15:11;;;;;;;;;;;;;;;;;;5066777;28;19904;-58
2023/09/19 12:17:36;;;;;;;;;;;;;;;;;;5069715;28;19930;-71
2023/09/19 12:20:12;;;;;;;;;;;;;;;;;;5069939;28;19915;-57
2023/09/19 12:22:37;;;;;;;;;;;;;;;;;;5068454;28;19924;-58
2023/09/19 12:25:03;;;;;;;;;;;;;;;;;;5069935;28;19912;-58
2023/09/19 12:27:28;;;;;;;;;;;;;;;;;;5071724;28;19909;-58
2023/09/19 12:29:55;;;;;;;;;;;;;;;;;;5073428;28;19904;-58
2023/09/19 12:32:21;;;;;;;;;;;;;;;;;;5072203;28;20053;-59
2023/09/19 12:34:46;;;;;;;;;;;;;;;;;;5073180;28;19904;-62
2023/09/19 12:37:12;;;;;;;;;;;;;;;;;;5071872;28;19920;-58
2023/09/19 12:39:37;;;;;;;;;;;;;;;;;;5073113;28;19923;-58
2023/09/19 12:42:04;;;;;;;;;;;;;;;;;;5070297;28;19912;-59
2023/09/19 12:44:29;;;;;;;;;;;;;;;;;;5073243;28;19962;-58
2023/09/19 12:46:54;;;;;;;;;;;;;;;;;;5071770;28;19908;-58
2023/09/19 12:49:19;;;;;;;;;;;;;;;;;;5073302;28;19908;-60
2023/09/19 12:51:44;;;;;;;;;;;;;;;;;;5071609;28;20380;-58
2023/09/19 12:54:14;;;;;;;;;;;;;;;;;;5073188;28;19961;-59
2023/09/19 12:56:41;;;;;;;;;;;;;;;;;;5071337;28;19927;-59
2023/09/19 12:59:09;;;;;;;;;;;;;;;;;;5072925;28;20412;-59
2023/09/19 13:01:40;;;;;;;;;;;;;;;;;;5071327;28;20719;-59
2023/09/19 13:04:05;;;;;;;;;;;;;;;;;;5073492;28;19908;-59
2023/09/19 13:06:30;;;;;;;;;;;;;;;;;;5071263;28;19915;-59
2023/09/19 13:09:00;;;;;;;;;;;;;;;;;;5073163;28;19905;-59
2023/09/19 13:11:25;;;;;;;;;;;;;;;;;;5071297;28;19961;-58
2023/09/19 13:13:54;;;;;;;;;;;;;;;;;;5072033;28;19995;-59
2023/09/19 13:16:22;;;;;;;;;;;;;;;;;;5071448;28;19916;-62
2023/09/19 13:18:50;;;;;;;;;;;;;;;;;;5072803;28;19908;-57
2023/09/19 13:21:22;;;;;;;;;;;;;;;;;;5069609;28;20006;-58
2023/09/19 13:23:48;;;;;;;;;;;;;;;;;;5072714;28;19909;-58
2023/09/19 13:26:13;;;;;;;;;;;;;;;;;;5071002;28;20356;-58
2023/09/19 13:28:38;;;;;;;;;;;;;;;;;;5072130;28;20264;-58
2023/09/19 13:31:03;;;;;;;;;;;;;;;;;;5071128;28;19944;-58
2023/09/19 13:33:28;;;;;;;;;;;;;;;;;;5072864;28;20295;-65
2023/09/19 13:35:53;;;;;;;;;;;;;;;;;;5070438;28;19961;-58
2023/09/19 13:38:21;;;;;;;;;;;;;;;;;;5072359;28;19951;-58
2023/09/19 13:40:47;;;;;;;;;;;;;;;;;;5070286;28;19920;-58
2023/09/19 13:43:12;;;;;;;;;;;;;;;;;;5071922;28;19995;-58
2023/09/19 13:45:37;;;;;;;;;;;;;;;;;;5069170;28;20324;-58
2023/09/19 13:48:02;;;;;;;;;;;;;;;;;;5072315;28;19953;-58
2023/09/19 13:50:29;;;;;;;;;;;;;;;;;;5070523;28;20418;-58
2023/09/19 13:52:54;;;;;;;;;;;;;;;;;;5069320;28;20283;-57
2023/09/19 13:55:20;;;;;;;;;;;;;;;;;;5068094;28;19909;-60
2023/09/19 13:57:45;;;;;;;;;;;;;;;;;;5050537;28;19904;-58
2023/09/19 14:00:10;;;;;;;;;;;;;;;;;;5049477;28;20011;-57
2023/09/19 14:02:35;;;;;;;;;;;;;;;;;;5052024;28;19911;-57
2023/09/19 14:05:01;;;;;;;;;;;;;;;;;;5051497;28;20469;-58
2023/09/19 14:07:26;;;;;;;;;;;;;;;;;;5050672;28;19908;-59
2023/09/19 14:09:52;;;;;;;;;;;;;;;;;;5051443;28;20002;-58
2023/09/19 14:12:17;;;;;;;;;;;;;;;;;;5049646;28;19938;-58
2023/09/19 14:14:42;;;;;;;;;;;;;;;;;;5051187;28;19954;-58
2023/09/19 14:17:09;;;;;;;;;;;;;;;;;;5048771;28;20001;-58
2023/09/19 14:19:36;;;;;;;;;;;;;;;;;;5051141;28;19909;-58
2023/09/19 14:22:07;;;;;;;;;;;;;;;;;;5050055;28;19908;-58
2023/09/19 14:24:32;;;;;;;;;;;;;;;;;;5051098;28;20303;-58
2023/09/19 14:26:57;;;;;;;;;;;;;;;;;;5049835;28;20516;-58
2023/09/19 14:29:22;;;;;;;;;;;;;;;;;;5051143;28;19991;-58
2023/09/19 14:31:47;;;;;;;;;;;;;;;;;;5050160;28;19992;-58
2023/09/19 14:34:14;;;;;;;;;;;;;;;;;;5051685;28;19909;-58
2023/09/19 14:36:39;;;;;;;;;;;;;;;;;;5049679;28;19944;-58
2023/09/19 14:39:04;;;;;;;;;;;;;;;;;;5051548;28;20011;-58
2023/09/19 14:41:31;;;;;;;;;;;;;;;;;;5055722;28;19912;-71
2023/09/19 14:43:56;;;;;;;;;;;;;;;;;;5065596;28;19912;-58
2023/09/19 14:46:24;;;;;;;;;;;;;;;;;;5069637;28;19930;-58
2023/09/19 14:48:49;;;;;;;;;;;;;;;;;;5067770;28;20264;-58
2023/09/19 14:51:14;;;;;;;;;;;;;;;;;;5068903;28;20498;-59
2023/09/19 14:53:39;;;;;;;;;;;;;;;;;;5069257;28;20255;-58
2023/09/19 14:56:04;;;;;;;;;;;;;;;;;;5061898;28;20341;-58
2023/09/19 14:58:30;;;;;;;;;;;;;;;;;;5050821;28;19916;-58
2023/09/19 15:00:55;;;;;;;;;;;;;;;;;;5056087;28;20015;-57
2023/09/19 15:03:20;;;;;;;;;;;;;;;;;;5055930;28;19909;-58
2023/09/19 15:05:45;;;;;;;;;;;;;;;;;;5059129;28;19912;-57
2023/09/19 15:08:10;;;;;;;;;;;;;;;;;;5070932;28;19909;-58
2023/09/19 15:10:35;;;;;;;;;;;;;;;;;;5068442;28;19935;-58
2023/09/19 15:13:01;;;;;;;;;;;;;;;;;;5070651;28;19915;-58
2023/09/19 15:15:26;;;;;;;;;;;;;;;;;;5069278;28;20064;-65
2023/09/19 15:17:51;;;;;;;;;;;;;;;;;;5070219;28;19961;-58
2023/09/19 15:20:17;;;;;;;;;;;;;;;;;;5069249;28;19930;-58
2023/09/19 15:22:42;;;;;;;;;;;;;;;;;;5066110;28;20453;-58
2023/09/19 15:25:07;;;;;;;;;;;;;;;;;;5060314;28;19955;-57
2023/09/19 15:27:33;;;;;;;;;;;;;;;;;;5070374;28;19912;-58
2023/09/19 15:29:58;;;;;;;;;;;;;;;;;;5070484;28;19905;-58
2023/09/19 15:32:23;;;;;;;;;;;;;;;;;;5066222;28;20325;-58
2023/09/19 15:34:48;;;;;;;;;;;;;;;;;;5069801;28;20410;-58
2023/09/19 15:37:13;;;;;;;;;;;;;;;;;;5067939;28;19939;-57
2023/09/19 15:39:38;;;;;;;;;;;;;;;;;;5069483;28;20019;-58
2023/09/19 15:42:03;;;;;;;;;;;;;;;;;;5068131;28;19952;-57
2023/09/19 15:44:29;;;;;;;;;;;;;;;;;;5069987;28;20298;-58
2023/09/19 15:46:54;;;;;;;;;;;;;;;;;;5058429;28;19913;-58
2023/09/19 15:49:19;;;;;;;;;;;;;;;;;;5056001;28;20437;-58
2023/09/19 15:51:44;;;;;;;;;;;;;;;;;;5049430;28;19919;-58
2023/09/19 15:54:09;;;;;;;;;;;;;;;;;;5051266;28;19912;-58
2023/09/19 15:56:34;;;;;;;;;;;;;;;;;;5059554;28;19913;-58
2023/09/19 15:59:00;;;;;;;;;;;;;;;;;;5070389;28;19927;-58
2023/09/19 16:01:25;;;;;;;;;;;;;;;;;;5070732;28;19917;-58
2023/09/19 16:03:52;;;;;;;;;;;;;;;;;;5073426;28;19970;-58
2023/09/19 16:06:19;;;;;;;;;;;;;;;;;;5072678;28;19917;-58
2023/09/19 16:08:45;;;;;;;;;;;;;;;;;;5073231;28;20279;-58
2023/09/19 16:11:10;;;;;;;;;;;;;;;;;;5070086;28;20298;-58
2023/09/19 16:13:35;;;;;;;;;;;;;;;;;;5072293;28;20295;-58
2023/09/19 16:16:00;;;;;;;;;;;;;;;;;;5072015;28;19912;-58
2023/09/19 16:18:25;;;;;;;;;;;;;;;;;;5073418;28;19965;-58
2023/09/19 16:20:50;;;;;;;;;;;;;;;;;;5071282;28;19962;-59
2023/09/19 16:23:15;;;;;;;;;;;;;;;;;;5072045;28;19926;-58
2023/09/19 16:25:40;;;;;;;;;;;;;;;;;;5071547;28;19913;-58
2023/09/19 16:28:05;;;;;;;;;;;;;;;;;;5073677;28;19991;-58
2023/09/19 16:30:30;;;;;;;;;;;;;;;;;;5060419;28;19920;-57
2023/09/19 16:32:55;;;;;;;;;;;;;;;;;;5066715;28;19969;-58
2023/09/19 16:35:20;;;;;;;;;;;;;;;;;;5072008;28;19916;-58
2023/09/19 16:37:46;;;;;;;;;;;;;;;;;;5065399;28;19909;-58
2023/09/19 16:40:12;;;;;;;;;;;;;;;;;;5051869;28;20405;-58
2023/09/19 16:42:38;;;;;;;;;;;;;;;;;;5068493;28;19911;-58